Nearby METAR Reports

 

EGNV - Tees-Side, United Kingdom
Distance from station: W 8mi, 13km
Updated: 23/02/2018 21:20
Mostly cloudy
Mostly cloudy
 Wind from SE
Wind: SE 7 mph , 11 km/h
Temperature: 2°C
Wind Chill: -1°C
Dew Point: -3°C
Humidity: 70%
Barometer: 1023 hPa
Clouds: Mostly cloudy
Visibility: 6 miles , 10 km
Cloud details: Few Clouds 762 m
Mostly cloudy 884 m
2018/02/23 21:20 EGNV 232120Z 13006KT 9999 FEW025 BKN029 02/M03 Q1023
EGXE - Leeming Raf, United Kingdom
Distance from station: SW 21mi, 34km
Updated: 23/02/2018 21:50
Overcast
Overcast
 Wind from SE
Wind: SE 8 mph , 13 km/h
Temperature: 2°C
Wind Chill: -1°C
Dew Point: -2°C
Humidity: 75%
Barometer: 1023 hPa
Clouds: Overcast
Visibility: 6 miles , 10 km
Cloud details: Overcast 823 m
2018/02/23 21:50 EGXE 232150Z AUTO 13007KT 9999 OVC027/// 02/M02 Q1023
 
EGXZ - Topcliffe Raf, United Kingdom
Distance from station: SSW 24mi, 38km
Updated: 23/02/2018 21:50
Overcast
Overcast
 Wind from ESE
Wind: ESE 8 mph , 13 km/h
Temperature: 2°C
Wind Chill: -1°C
Dew Point: -2°C
Humidity: 75%
Barometer: 1023 hPa
Clouds: Overcast
Visibility: 6 miles , 10 km
Cloud details: Overcast 823 m
2018/02/23 21:50 EGXZ 232150Z AUTO 12007KT 9999 OVC027/// 02/M02 Q1023
EGXD - Dishforth Raf, United Kingdom
Distance from station: SSW 29mi, 46km
Updated: 06/06/2016 10:50
NOT Current
Clear
Clear
 Wind from SSE
Wind: SSE 5 mph , 7 km/h
Temperature: 18°C
Dew Point: 11°C
Humidity: 64%
Barometer: 1023 hPa
Clouds: Clear
Visibility: 6 miles , 10 km
2016/06/06 09:50 EGXD 060950Z AUTO 16004KT 9999 // NCD 18/11 Q1023
 
EGXU - Linton-On-Ouse R, United Kingdom
Distance from station: S 33mi, 53km
Updated: 23/02/2018 21:50
Overcast
Overcast
 Wind from SE
Wind: SE 10 mph , 17 km/h
Temperature: 2°C
Wind Chill: -2°C
Dew Point: -2°C
Humidity: 75%
Barometer: 1023 hPa
Clouds: Overcast
Visibility: 6 miles , 10 km
Cloud details: Overcast 823 m
2018/02/23 21:50 EGXU 232150Z AUTO 13009KT 9999 // OVC027/// 02/M02 Q1023
EGNT - Newcastle, United Kingdom
Distance from station: NNW 39mi, 63km
Updated: 23/02/2018 22:20
Mostly cloudy
Mostly cloudy
 Wind from SSE
Wind: SSE 6 mph , 9 km/h
Temperature: 2°C
Wind Chill: -1°C
Dew Point: -3°C
Humidity: 70%
Barometer: 1022 hPa
Clouds: Mostly cloudy
Visibility: 6 miles , 10 km
Cloud details: Mostly cloudy 792 m
2018/02/23 22:20 EGNT 232220Z 15005KT 100V190 9999 BKN026 02/M03 Q1022
 
EGNM - Leeds And Bradfo, United Kingdom
Distance from station: SSW 49mi, 79km
Updated: 23/02/2018 22:20
Mostly cloudy
Mostly cloudy
 Wind from ESE
Wind: ESE 16 mph , 26 km/h
Temperature: 0°C
Wind Chill: -6°C
Dew Point: -4°C
Humidity: 75%
Barometer: 1021 hPa
Clouds: Mostly cloudy
Visibility: 6 miles , 10 km
Cloud details: Mostly cloudy 610 m
2018/02/23 22:20 EGNM 232220Z 11014KT 9999 BKN020 00/M04 Q1021